createdAt,value
2018-12-15T00:01:51.724Z,0.20
2018-12-15T00:04:19.832Z,0.30
2018-12-15T00:06:47.952Z,0.30
2018-12-15T00:09:16.112Z,0.30
2018-12-15T00:11:44.219Z,0.20
2018-12-15T00:14:12.342Z,0.20
2018-12-15T00:16:40.571Z,0.30
2018-12-15T00:19:08.696Z,0.30
2018-12-15T00:21:36.788Z,0.30
2018-12-15T00:24:04.937Z,0.30
2018-12-15T00:26:33.046Z,0.30
2018-12-15T00:29:01.169Z,0.20
2018-12-15T00:31:29.328Z,0.20
2018-12-15T00:33:57.441Z,0.20
2018-12-15T00:36:25.544Z,0.20
2018-12-15T00:38:53.721Z,0.30
2018-12-15T00:41:21.867Z,0.30
2018-12-15T00:43:49.976Z,0.40
2018-12-15T00:46:18.132Z,0.40
2018-12-15T00:48:46.268Z,0.50
2018-12-15T00:51:14.380Z,0.30
2018-12-15T00:53:42.535Z,0.30
2018-12-15T00:56:10.704Z,0.30
2018-12-15T00:58:38.796Z,0.40
2018-12-15T01:01:07.007Z,0.40
2018-12-15T01:03:35.146Z,0.50
2018-12-15T01:06:03.305Z,0.50
2018-12-15T01:08:31.720Z,0.50
2018-12-15T01:10:59.826Z,0.50
2018-12-15T01:13:27.940Z,0.40
2018-12-15T01:15:56.101Z,0.40
2018-12-15T01:18:24.172Z,0.50
2018-12-15T01:20:52.360Z,0.40
2018-12-15T01:23:20.519Z,0.50
2018-12-15T01:25:48.648Z,0.50
2018-12-15T01:28:16.760Z,0.50
2018-12-15T01:30:45.079Z,0.50
2018-12-15T01:33:13.220Z,0.50
2018-12-15T01:35:41.326Z,0.60
2018-12-15T01:38:09.476Z,0.60
2018-12-15T01:40:37.640Z,0.70
2018-12-15T01:43:05.728Z,0.50
2018-12-15T01:45:33.772Z,0.40
2018-12-15T01:50:32.532Z,0.50
2018-12-15T01:53:00.640Z,0.50
2018-12-15T01:55:28.748Z,0.60
2018-12-15T01:57:56.909Z,0.60
2018-12-15T02:00:25.080Z,0.60
2018-12-15T02:02:53.279Z,0.60
2018-12-15T02:05:21.459Z,0.60
2018-12-15T02:07:49.635Z,0.70
2018-12-15T02:10:17.748Z,0.60
2018-12-15T02:12:45.855Z,0.60
2018-12-15T02:15:14.092Z,0.50
2018-12-15T02:17:42.152Z,0.40
2018-12-15T02:20:10.251Z,0.40
2018-12-15T02:22:38.404Z,0.40
2018-12-15T02:25:06.504Z,0.40
2018-12-15T02:27:34.733Z,0.50
2018-12-15T02:30:02.887Z,0.50
2018-12-15T02:32:31.076Z,0.40
2018-12-15T02:34:59.180Z,0.40
2018-12-15T02:37:29.293Z,0.30
2018-12-15T02:39:57.405Z,0.30
2018-12-15T02:42:25.704Z,0.30
2018-12-15T02:44:54.040Z,0.30
2018-12-15T02:47:22.156Z,0.20
2018-12-15T02:49:50.256Z,0.20
2018-12-15T02:52:18.412Z,0.20
2018-12-15T02:54:46.516Z,0.20
2018-12-15T02:57:14.635Z,0.30
2018-12-15T02:59:42.856Z,0.20
2018-12-15T03:02:10.964Z,0.30
2018-12-15T03:04:39.147Z,0.10
2018-12-15T03:07:07.300Z,0.20
2018-12-15T03:09:35.415Z,0.30
2018-12-15T03:12:03.562Z,0.20
2018-12-15T03:14:31.703Z,0.30
2018-12-15T03:17:05.563Z,0.30
2018-12-15T03:19:34.009Z,0.20
2018-12-15T03:22:02.124Z,0.20
2018-12-15T03:24:30.225Z,0.20
2018-12-15T03:26:58.353Z,0.10
2018-12-15T03:29:26.497Z,0.00
2018-12-15T03:31:54.606Z,0.10
2018-12-15T03:34:22.711Z,0.00
2018-12-15T03:36:50.868Z,0.00
2018-12-15T03:39:18.962Z,0.00
2018-12-15T03:41:47.183Z,-0.10
2018-12-15T03:44:15.321Z,-0.10
2018-12-15T03:46:43.427Z,0.00
2018-12-15T03:49:11.526Z,0.00
2018-12-15T03:51:39.720Z,0.10
2018-12-15T03:54:08.000Z,0.10
2018-12-15T03:56:36.136Z,0.10
2018-12-15T03:59:04.234Z,0.10
2018-12-15T04:01:32.389Z,0.10
2018-12-15T04:04:00.497Z,0.10
2018-12-15T04:06:28.649Z,0.10
2018-12-15T04:08:56.792Z,0.10
2018-12-15T04:11:24.901Z,0.30
2018-12-15T04:13:53.048Z,0.20
2018-12-15T04:16:21.188Z,0.10
2018-12-15T04:18:49.337Z,0.20
2018-12-15T04:21:17.460Z,0.20
2018-12-15T04:23:45.567Z,0.30
2018-12-15T04:26:13.660Z,0.50
2018-12-15T04:28:41.781Z,0.50
2018-12-15T04:31:10.132Z,0.40
2018-12-15T04:33:38.259Z,0.30
2018-12-15T04:36:15.884Z,0.30
2018-12-15T04:38:44.010Z,0.40
2018-12-15T04:41:12.167Z,0.40
2018-12-15T04:43:40.400Z,0.50
2018-12-15T04:46:08.572Z,0.40
2018-12-15T04:48:36.716Z,0.40
2018-12-15T04:51:04.884Z,0.50
2018-12-15T04:53:32.999Z,0.50
2018-12-15T04:56:01.137Z,0.50
2018-12-15T04:58:29.339Z,0.50
2018-12-15T05:00:57.537Z,0.40
2018-12-15T05:03:25.664Z,0.40
2018-12-15T05:05:53.848Z,0.30
2018-12-15T05:08:21.966Z,0.40
2018-12-15T05:10:50.091Z,0.40
2018-12-15T05:13:18.244Z,0.30
2018-12-15T05:15:46.351Z,0.20
2018-12-15T05:18:18.151Z,0.10
2018-12-15T05:20:44.686Z,0.10
2018-12-15T05:23:12.784Z,0.10
2018-12-15T05:25:41.057Z,0.00
2018-12-15T05:28:09.181Z,-0.10
2018-12-15T05:30:37.296Z,0.00
2018-12-15T05:33:05.632Z,0.00
2018-12-15T05:35:33.752Z,0.00
2018-12-15T05:38:01.852Z,0.10
2018-12-15T05:40:30.139Z,0.10
2018-12-15T05:42:58.255Z,0.20
2018-12-15T05:45:26.323Z,0.20
2018-12-15T05:47:54.561Z,0.30
2018-12-15T05:50:22.696Z,0.10
2018-12-15T05:52:50.872Z,0.00
2018-12-15T05:55:19.991Z,0.20
2018-12-15T05:57:48.300Z,0.10
2018-12-15T06:00:16.433Z,0.20
2018-12-15T06:02:44.607Z,0.20
2018-12-15T06:05:12.904Z,0.10
2018-12-15T06:07:41.128Z,0.10
2018-12-15T06:10:09.246Z,0.10
2018-12-15T06:12:37.400Z,0.10
2018-12-15T06:15:06.392Z,0.20
2018-12-15T06:17:34.508Z,0.10
2018-12-15T06:20:02.683Z,0.10
2018-12-15T06:22:30.816Z,0.10
2018-12-15T06:24:58.974Z,0.20
2018-12-15T06:27:27.126Z,0.10
2018-12-15T06:29:55.371Z,0.00
2018-12-15T06:32:23.512Z,-0.10
2018-12-15T06:34:51.642Z,0.00
2018-12-15T06:37:19.760Z,0.00
2018-12-15T06:39:47.882Z,0.10
2018-12-15T06:42:16.009Z,0.20
2018-12-15T06:44:44.172Z,0.10
2018-12-15T06:47:12.285Z,0.00
2018-12-15T06:49:40.486Z,-0.10
2018-12-15T06:52:08.742Z,-0.20
2018-12-15T06:54:36.893Z,-0.10
2018-12-15T06:57:05.034Z,-0.10
2018-12-15T06:59:33.218Z,-0.10
2018-12-15T07:02:01.340Z,-0.10
2018-12-15T07:04:29.471Z,0.00
2018-12-15T07:06:57.600Z,0.00
2018-12-15T07:09:25.815Z,0.00
2018-12-15T07:11:53.948Z,-0.10
2018-12-15T07:14:22.100Z,0.00
2018-12-15T07:16:50.236Z,0.00
2018-12-15T07:19:18.396Z,0.00
2018-12-15T07:21:46.681Z,-0.10
2018-12-15T07:24:14.976Z,-0.20
2018-12-15T07:26:43.117Z,-0.10
2018-12-15T07:29:11.432Z,0.00
2018-12-15T07:31:39.548Z,0.00
2018-12-15T07:34:07.670Z,0.00
2018-12-15T07:36:35.832Z,0.00
2018-12-15T07:39:06.528Z,0.10
2018-12-15T07:41:34.676Z,0.10
2018-12-15T07:44:02.856Z,0.00
2018-12-15T07:46:30.985Z,0.00
2018-12-15T07:48:59.132Z,0.00
2018-12-15T07:51:27.312Z,0.00
2018-12-15T07:53:55.501Z,0.00
2018-12-15T07:56:26.599Z,0.00
2018-12-15T07:58:55.395Z,0.00
2018-12-15T08:01:23.525Z,0.00
2018-12-15T08:03:51.743Z,0.10
2018-12-15T08:06:20.021Z,0.10
2018-12-15T08:08:48.255Z,0.10
2018-12-15T08:13:26.094Z,0.20
2018-12-15T08:15:54.241Z,0.20
2018-12-15T08:18:22.356Z,0.20
2018-12-15T08:20:50.591Z,0.10
2018-12-15T08:23:18.704Z,0.10
2018-12-15T08:25:46.824Z,0.10
2018-12-15T08:28:15.035Z,0.00
2018-12-15T08:30:43.132Z,0.10
2018-12-15T08:33:11.279Z,0.10
2018-12-15T08:35:39.424Z,0.10
2018-12-15T08:38:07.548Z,0.20
2018-12-15T08:40:35.656Z,0.10
2018-12-15T08:43:03.828Z,0.20
2018-12-15T08:45:32.020Z,0.20
2018-12-15T08:48:00.145Z,0.20
2018-12-15T08:50:28.316Z,0.20
2018-12-15T08:52:56.627Z,0.10
2018-12-15T08:55:24.784Z,0.10
2018-12-15T08:57:53.029Z,0.10
2018-12-15T09:00:21.136Z,0.20
2018-12-15T09:02:49.340Z,0.20
2018-12-15T09:05:17.528Z,0.40
2018-12-15T09:07:45.701Z,0.40
2018-12-15T09:10:13.812Z,0.40
2018-12-15T09:12:41.990Z,0.40
2018-12-15T09:15:10.104Z,0.40
2018-12-15T09:17:38.229Z,0.40
2018-12-15T09:20:06.577Z,0.40
2018-12-15T09:22:34.702Z,0.50
2018-12-15T09:25:02.861Z,0.30
2018-12-15T09:27:31.012Z,0.30
2018-12-15T09:29:59.309Z,0.20
2018-12-15T09:32:27.607Z,0.40
2018-12-15T09:34:55.728Z,0.30
2018-12-15T09:37:23.860Z,0.30
2018-12-15T09:39:52.020Z,0.30
2018-12-15T09:44:42.396Z,0.30
2018-12-15T09:47:10.553Z,0.40
2018-12-15T09:49:38.665Z,0.40
2018-12-15T09:52:06.823Z,0.30
2018-12-15T09:54:34.941Z,0.40
2018-12-15T09:57:03.196Z,0.40
2018-12-15T09:59:31.344Z,0.50
2018-12-15T10:01:59.457Z,0.50
2018-12-15T10:04:27.570Z,0.60
2018-12-15T10:06:55.817Z,0.50
2018-12-15T10:09:24.004Z,0.60
2018-12-15T10:11:52.163Z,0.70
2018-12-15T10:14:20.315Z,0.70
2018-12-15T10:16:48.468Z,0.70
2018-12-15T10:19:16.584Z,0.70
2018-12-15T10:21:44.701Z,0.60
2018-12-15T10:24:12.808Z,0.70
2018-12-15T10:26:41.068Z,0.80
2018-12-15T10:29:13.438Z,0.70
2018-12-15T10:31:47.136Z,0.70
2018-12-15T10:34:15.247Z,0.60
2018-12-15T10:36:43.426Z,0.50
2018-12-15T10:39:11.623Z,0.60
2018-12-15T10:41:39.719Z,0.60
2018-12-15T10:44:07.791Z,0.60
2018-12-15T10:46:36.180Z,0.70
2018-12-15T10:49:04.399Z,0.70
2018-12-15T10:51:32.556Z,0.90
2018-12-15T10:54:00.721Z,0.90
2018-12-15T10:56:28.838Z,1.00
2018-12-15T11:01:32.596Z,1.00
2018-12-15T11:04:00.990Z,0.80
2018-12-15T11:06:29.128Z,0.60
2018-12-15T11:08:57.304Z,0.70
2018-12-15T11:11:25.975Z,0.60
2018-12-15T11:13:54.072Z,0.60
2018-12-15T11:16:22.239Z,0.70
2018-12-15T11:18:50.373Z,0.70
2018-12-15T11:21:18.480Z,0.80
2018-12-15T11:23:46.636Z,0.70
2018-12-15T11:26:14.788Z,0.90
2018-12-15T11:28:42.901Z,0.80
2018-12-15T11:31:11.057Z,0.90
2018-12-15T11:33:39.154Z,0.90
2018-12-15T11:36:07.321Z,0.90
2018-12-15T11:38:35.466Z,0.80
2018-12-15T11:41:03.612Z,0.70
2018-12-15T11:43:31.803Z,0.70
2018-12-15T11:45:59.916Z,0.80
2018-12-15T11:48:28.064Z,1.00
2018-12-15T11:53:27.396Z,1.10
2018-12-15T11:55:55.567Z,1.20
2018-12-15T11:58:23.802Z,1.20
2018-12-15T12:00:52.036Z,1.00
2018-12-15T12:03:20.180Z,0.90
2018-12-15T12:05:48.341Z,0.90
2018-12-15T12:08:16.441Z,0.90
2018-12-15T12:10:44.616Z,1.00
2018-12-15T12:13:12.891Z,1.10
2018-12-15T12:15:41.010Z,1.20
2018-12-15T12:18:09.219Z,1.30
2018-12-15T12:20:37.377Z,1.40
2018-12-15T12:23:05.488Z,1.40
2018-12-15T12:25:33.751Z,1.30
2018-12-15T12:28:02.016Z,1.30
2018-12-15T12:30:30.207Z,1.20
2018-12-15T12:32:59.402Z,1.20
2018-12-15T12:35:27.837Z,1.10
2018-12-15T12:37:56.031Z,1.10
2018-12-15T12:40:24.148Z,1.00
2018-12-15T12:42:52.334Z,1.00
2018-12-15T12:45:20.501Z,1.00
2018-12-15T12:47:48.608Z,0.90
2018-12-15T12:50:16.768Z,0.90
2018-12-15T12:52:44.916Z,0.90
2018-12-15T12:55:13.031Z,0.90
2018-12-15T12:57:41.211Z,1.00
2018-12-15T13:00:09.496Z,1.20
2018-12-15T13:02:37.604Z,1.30
2018-12-15T13:05:06.009Z,1.30
2018-12-15T13:07:34.160Z,1.30
2018-12-15T13:10:02.376Z,1.10
2018-12-15T13:12:30.544Z,1.00
2018-12-15T13:14:58.648Z,1.00
2018-12-15T13:17:26.773Z,1.10
2018-12-15T13:19:54.915Z,1.20
2018-12-15T13:22:23.044Z,1.20
2018-12-15T13:24:51.239Z,1.10
2018-12-15T13:27:19.460Z,1.20
2018-12-15T13:29:47.579Z,1.30
2018-12-15T13:32:15.693Z,1.30
2018-12-15T13:34:43.862Z,1.30
2018-12-15T13:37:12.080Z,1.20
2018-12-15T13:39:40.312Z,1.20
2018-12-15T13:42:08.467Z,1.30
2018-12-15T13:44:36.581Z,1.40
2018-12-15T13:47:04.695Z,1.40
2018-12-15T13:49:32.859Z,1.20
2018-12-15T13:52:00.959Z,1.10
2018-12-15T13:54:29.069Z,1.20
2018-12-15T13:56:57.236Z,1.40
2018-12-15T13:59:25.358Z,1.30
2018-12-15T14:01:53.460Z,1.20
2018-12-15T14:04:21.616Z,1.20
2018-12-15T14:06:49.729Z,1.30
2018-12-15T14:09:17.922Z,1.30
2018-12-15T14:11:46.188Z,1.20
2018-12-15T14:14:14.593Z,1.10
2018-12-15T14:16:59.512Z,1.00
2018-12-15T14:19:27.681Z,1.10
2018-12-15T14:21:55.869Z,1.10
2018-12-15T14:24:24.163Z,1.20
2018-12-15T14:26:52.326Z,1.20
2018-12-15T14:29:20.431Z,1.20
2018-12-15T14:31:48.544Z,1.30
2018-12-15T14:34:16.702Z,1.10
2018-12-15T14:36:44.804Z,1.00
2018-12-15T14:39:12.912Z,0.90
2018-12-15T14:41:41.077Z,0.90
2018-12-15T14:44:09.187Z,1.10
2018-12-15T14:46:37.301Z,1.10
2018-12-15T14:49:05.460Z,1.00
2018-12-15T14:51:33.563Z,1.00
2018-12-15T14:54:01.714Z,1.10
2018-12-15T14:56:29.969Z,1.20
2018-12-15T14:58:58.071Z,1.10
2018-12-15T15:01:26.186Z,1.00
2018-12-15T15:03:54.331Z,1.00
2018-12-15T15:06:22.517Z,1.20
2018-12-15T15:08:50.620Z,1.20
2018-12-15T15:11:18.799Z,1.10
2018-12-15T15:13:46.911Z,1.20
2018-12-15T15:16:15.027Z,1.40
2018-12-15T15:18:43.282Z,1.30
2018-12-15T15:21:11.408Z,1.20
2018-12-15T15:23:39.540Z,1.20
2018-12-15T15:26:07.814Z,1.20
2018-12-15T15:28:35.925Z,1.20
2018-12-15T15:31:04.078Z,1.20
2018-12-15T15:33:32.247Z,1.20
2018-12-15T15:36:00.420Z,1.20
2018-12-15T15:38:28.551Z,1.20
2018-12-15T15:40:56.727Z,1.20
2018-12-15T15:43:31.316Z,1.20
2018-12-15T15:45:59.489Z,1.10
2018-12-15T15:48:27.612Z,1.00
2018-12-15T15:50:55.775Z,1.00
2018-12-15T15:53:24.120Z,1.00
2018-12-15T15:55:52.235Z,1.20
2018-12-15T15:58:20.368Z,1.20
2018-12-15T16:00:48.560Z,1.00
2018-12-15T16:03:16.695Z,1.10
2018-12-15T16:05:44.851Z,1.00
2018-12-15T16:08:13.118Z,1.00
2018-12-15T16:10:41.237Z,1.00
2018-12-15T16:13:09.376Z,0.90
2018-12-15T16:15:37.646Z,1.00
2018-12-15T16:18:05.775Z,0.90
2018-12-15T16:20:33.904Z,0.90
2018-12-15T16:23:02.068Z,0.90
2018-12-15T16:25:30.184Z,0.90
2018-12-15T16:27:58.376Z,0.90
2018-12-15T16:30:26.532Z,0.90
2018-12-15T16:32:54.696Z,0.80
2018-12-15T16:35:22.864Z,0.90
2018-12-15T16:37:50.984Z,1.00
2018-12-15T16:40:19.211Z,1.10
2018-12-15T16:42:47.330Z,1.10
2018-12-15T16:45:15.476Z,1.10
2018-12-15T16:47:43.664Z,1.00
2018-12-15T16:50:13.317Z,1.00
2018-12-15T16:52:41.824Z,1.00
2018-12-15T16:55:10.393Z,1.00
2018-12-15T16:57:38.650Z,1.00
2018-12-15T17:00:10.469Z,1.00
2018-12-15T17:02:38.776Z,1.00
2018-12-15T17:05:06.913Z,1.00
2018-12-15T17:07:35.184Z,0.90
2018-12-15T17:10:04.349Z,1.00
2018-12-15T17:12:32.526Z,1.00
2018-12-15T17:15:00.716Z,0.90
2018-12-15T17:17:28.853Z,0.80
2018-12-15T17:19:57.040Z,0.80
2018-12-15T17:22:25.260Z,0.80
2018-12-15T17:24:53.392Z,0.80
2018-12-15T17:27:28.280Z,0.90
2018-12-15T17:29:56.432Z,0.90
2018-12-15T17:32:24.552Z,0.70
2018-12-15T17:34:52.818Z,0.70
2018-12-15T17:37:20.949Z,0.80
2018-12-15T17:39:49.103Z,0.90
2018-12-15T17:42:17.285Z,0.90
2018-12-15T17:44:45.414Z,0.90
2018-12-15T17:47:13.559Z,1.00
2018-12-15T17:49:41.728Z,1.00
2018-12-15T17:52:10.096Z,0.90
2018-12-15T17:54:38.257Z,0.90
2018-12-15T17:57:06.675Z,0.80
2018-12-15T17:59:34.852Z,0.80
2018-12-15T18:02:03.118Z,0.80
2018-12-15T18:04:31.330Z,0.70
2018-12-15T18:06:59.370Z,0.70
2018-12-15T18:09:27.651Z,0.70
2018-12-15T18:11:55.818Z,0.80
2018-12-15T18:14:24.047Z,0.80
2018-12-15T18:16:52.290Z,0.80
2018-12-15T18:19:20.532Z,0.90
2018-12-15T18:21:48.645Z,0.90
2018-12-15T18:24:16.768Z,0.80
2018-12-15T18:26:44.950Z,0.80
2018-12-15T18:29:13.136Z,0.80
2018-12-15T18:31:41.440Z,0.90
2018-12-15T18:34:09.647Z,0.80
2018-12-15T18:36:37.821Z,0.90
2018-12-15T18:39:07.248Z,1.00
2018-12-15T18:41:35.453Z,1.00
2018-12-15T18:44:03.708Z,1.00
2018-12-15T18:46:31.924Z,1.10
2018-12-15T18:49:00.120Z,1.20
2018-12-15T18:51:28.233Z,1.10
2018-12-15T18:53:56.568Z,1.10
2018-12-15T18:56:24.878Z,1.20
2018-12-15T18:58:53.274Z,1.20
2018-12-15T19:01:21.487Z,1.10
2018-12-15T19:03:49.623Z,0.90
2018-12-15T19:06:17.752Z,0.90
2018-12-15T19:08:45.959Z,0.90
2018-12-15T19:11:14.219Z,0.90
2018-12-15T19:13:42.356Z,0.80
2018-12-15T19:16:10.561Z,0.80
2018-12-15T19:18:38.693Z,0.80
2018-12-15T19:21:08.184Z,0.90
2018-12-15T19:23:36.583Z,0.80
2018-12-15T19:26:04.716Z,0.80
2018-12-15T19:28:32.783Z,0.80
2018-12-15T19:31:01.093Z,0.80
2018-12-15T19:33:29.237Z,0.80
2018-12-15T19:35:58.369Z,0.80
2018-12-15T19:38:26.538Z,0.80
2018-12-15T19:40:54.737Z,0.90
2018-12-15T19:43:22.880Z,0.90
2018-12-15T19:45:51.097Z,0.90
2018-12-15T19:48:19.256Z,1.00
2018-12-15T19:50:47.384Z,1.00
2018-12-15T19:53:15.622Z,1.00
2018-12-15T19:55:43.770Z,0.70
2018-12-15T19:58:11.942Z,0.80
2018-12-15T20:00:40.236Z,0.70
2018-12-15T20:03:08.387Z,0.70
2018-12-15T20:05:36.501Z,0.70
2018-12-15T20:08:04.686Z,0.80
2018-12-15T20:10:32.807Z,0.80
2018-12-15T20:13:01.029Z,0.90
2018-12-15T20:15:29.223Z,0.80
2018-12-15T20:17:57.400Z,0.80
2018-12-15T20:20:25.598Z,0.90
2018-12-15T20:22:53.791Z,0.90
2018-12-15T20:25:22.017Z,0.90
2018-12-15T20:27:50.133Z,0.90
2018-12-15T20:30:18.360Z,0.80
2018-12-15T20:32:46.513Z,0.80
2018-12-15T20:35:14.632Z,0.90
2018-12-15T20:37:42.864Z,1.00
2018-12-15T20:40:11.012Z,1.00
2018-12-15T20:42:39.149Z,0.90
2018-12-15T20:45:07.425Z,0.90
2018-12-15T20:47:35.528Z,0.90
2018-12-15T20:50:04.120Z,0.90
2018-12-15T20:52:32.320Z,1.00
2018-12-15T20:55:00.452Z,0.90
2018-12-15T20:57:28.545Z,0.90
2018-12-15T20:59:56.728Z,0.80
2018-12-15T21:02:24.847Z,0.90
2018-12-15T21:04:52.988Z,1.00
2018-12-15T21:07:21.429Z,1.00
2018-12-15T21:09:49.563Z,1.10
2018-12-15T21:12:17.695Z,1.10
2018-12-15T21:14:45.874Z,1.00
2018-12-15T21:17:14.004Z,1.10
2018-12-15T21:19:47.668Z,1.20
2018-12-15T21:22:12.488Z,1.20
2018-12-15T21:24:40.621Z,1.10
2018-12-15T21:27:08.823Z,1.10
2018-12-15T21:29:37.004Z,1.00
2018-12-15T21:32:05.128Z,0.90
2018-12-15T21:34:33.311Z,0.80
2018-12-15T21:37:01.489Z,0.80
2018-12-15T21:39:29.566Z,0.70
2018-12-15T21:41:57.715Z,0.70
2018-12-15T21:44:25.876Z,0.80
2018-12-15T21:46:54.004Z,0.80
2018-12-15T21:49:22.120Z,0.80
2018-12-15T21:51:56.133Z,1.00
2018-12-15T21:54:20.441Z,1.00
2018-12-15T21:56:48.576Z,1.00
2018-12-15T21:59:16.677Z,1.00
2018-12-15T22:01:44.917Z,1.10
2018-12-15T22:04:13.017Z,1.00
2018-12-15T22:06:41.125Z,0.90
2018-12-15T22:09:09.266Z,0.90
2018-12-15T22:11:37.372Z,1.00
2018-12-15T22:14:05.480Z,0.90
2018-12-15T22:16:33.628Z,1.00
2018-12-15T22:19:01.732Z,0.90
2018-12-15T22:21:29.841Z,0.70
2018-12-15T22:23:58.080Z,0.90
2018-12-15T22:26:26.231Z,0.80
2018-12-15T22:28:54.332Z,0.80
2018-12-15T22:31:22.452Z,0.80
2018-12-15T22:33:50.616Z,0.90
2018-12-15T22:36:18.720Z,0.80
2018-12-15T22:38:46.828Z,0.80
2018-12-15T22:41:14.956Z,0.90
2018-12-15T22:43:43.061Z,0.80
2018-12-15T22:48:54.376Z,0.80
2018-12-15T22:51:22.628Z,0.90
2018-12-15T22:53:50.796Z,0.90
2018-12-15T22:56:18.944Z,0.80
2018-12-15T22:58:47.077Z,0.80
2018-12-15T23:01:15.605Z,0.80
2018-12-15T23:03:43.770Z,0.70
2018-12-15T23:06:11.941Z,0.60
2018-12-15T23:08:40.127Z,0.50
2018-12-15T23:11:08.230Z,0.50
2018-12-15T23:13:36.350Z,0.50
2018-12-15T23:16:04.525Z,0.60
2018-12-15T23:18:32.659Z,0.50
2018-12-15T23:21:00.789Z,0.60
2018-12-15T23:23:28.964Z,0.70
2018-12-15T23:25:57.192Z,0.80
2018-12-15T23:28:25.331Z,0.70
2018-12-15T23:30:53.501Z,0.70
2018-12-15T23:33:21.655Z,0.70
2018-12-15T23:35:49.781Z,0.60
2018-12-15T23:38:17.896Z,0.70
2018-12-15T23:40:46.056Z,0.80
2018-12-15T23:43:14.177Z,0.90
2018-12-15T23:45:42.336Z,0.80
2018-12-15T23:48:10.509Z,0.80
2018-12-15T23:50:38.611Z,0.80
2018-12-15T23:53:06.740Z,0.80
2018-12-15T23:55:35.005Z,0.80
2018-12-15T23:58:03.128Z,0.70
